createdAt,value
2022-11-27T00:01:54.845Z,99433.47
2022-11-27T00:04:57.818Z,99424.47
2022-11-27T00:08:00.606Z,99425.09
2022-11-27T00:11:08.413Z,99424.69
2022-11-27T00:14:12.861Z,99434.28
2022-11-27T00:17:16.977Z,99424.69
2022-11-27T00:20:19.599Z,99422.44
2022-11-27T00:23:22.324Z,99406.34
2022-11-27T00:26:25.529Z,99397.13
2022-11-27T00:29:29.241Z,99393.25
2022-11-27T00:32:33.247Z,99388.78
2022-11-27T00:35:36.015Z,99393.47
2022-11-27T00:38:39.457Z,99392.03
2022-11-27T00:41:42.115Z,99386.34
2022-11-27T00:44:47.926Z,99382.03
2022-11-27T00:47:51.906Z,99379.19
2022-11-27T00:51:00.411Z,99374.06
2022-11-27T00:54:03.295Z,99378.72
2022-11-27T00:57:06.473Z,99366.25
2022-11-27T01:00:10.225Z,99361.56
2022-11-27T01:03:14.200Z,99359.91
2022-11-27T01:06:18.687Z,99351.53
2022-11-27T01:09:21.404Z,99347.63
2022-11-27T01:12:24.119Z,99345.94
2022-11-27T01:15:26.768Z,99345.34
2022-11-27T01:18:31.225Z,99349.56
2022-11-27T01:21:43.368Z,99345.84
2022-11-27T01:24:46.253Z,99346.25
2022-11-27T01:27:48.971Z,99336.25
2022-11-27T01:30:52.552Z,99331.16
2022-11-27T01:33:58.747Z,99332.97
2022-11-27T01:37:01.421Z,99325.44
2022-11-27T01:40:04.436Z,99322.78
2022-11-27T01:43:07.295Z,99323.56
2022-11-27T01:46:29.675Z,99316.78
2022-11-27T01:49:37.830Z,99318.63
2022-11-27T01:52:44.381Z,99310.88
2022-11-27T01:55:52.348Z,99305.81
2022-11-27T01:58:56.664Z,99308.25
2022-11-27T02:01:59.477Z,99306.63
2022-11-27T02:05:03.704Z,99310.63
2022-11-27T02:08:10.316Z,99312.28
2022-11-27T02:11:18.883Z,99313.59
2022-11-27T02:14:31.812Z,99305.63
2022-11-27T02:17:44.436Z,99303.63
2022-11-27T02:20:56.305Z,99304.66
2022-11-27T02:24:39.132Z,99295.84
2022-11-27T02:28:04.175Z,99297.47
2022-11-27T02:31:15.596Z,99293.59
2022-11-27T02:34:25.847Z,99295.41
2022-11-27T02:37:35.552Z,99293.09
2022-11-27T02:40:43.808Z,99291.34
2022-11-27T02:43:50.660Z,99285.63
2022-11-27T02:46:56.147Z,99299.78
2022-11-27T02:50:00.667Z,99290.44
2022-11-27T02:53:08.988Z,99283.91
2022-11-27T02:56:16.313Z,99287.59
2022-11-27T02:59:20.938Z,99285.72
2022-11-27T03:02:31.463Z,99281.81
2022-11-27T03:05:38.520Z,99285.22
2022-11-27T03:08:49.940Z,99290.28
2022-11-27T03:11:53.007Z,99283.53
2022-11-27T03:14:55.860Z,99280.47
2022-11-27T03:18:06.527Z,99288.00
2022-11-27T03:21:20.394Z,99283.13
2022-11-27T03:24:23.227Z,99271.16
2022-11-27T03:27:33.451Z,99265.16
2022-11-27T03:30:36.219Z,99259.84
2022-11-27T03:33:40.677Z,99262.84
2022-11-27T03:36:43.375Z,99260.81
2022-11-27T03:39:46.157Z,99269.38
2022-11-27T03:43:00.087Z,99271.00
2022-11-27T03:46:11.411Z,99268.75
2022-11-27T03:49:25.471Z,99267.84
2022-11-27T03:52:36.804Z,99269.66
2022-11-27T03:55:49.300Z,99272.09
2022-11-27T03:58:56.068Z,99260.38
2022-11-27T04:01:58.864Z,99259.00
2022-11-27T04:05:02.872Z,99246.03
2022-11-27T04:08:06.079Z,99256.16
2022-11-27T04:11:09.493Z,99249.13
2022-11-27T04:14:12.100Z,99256.66
2022-11-27T04:17:14.861Z,99260.22
2022-11-27T04:20:19.568Z,99247.97
2022-11-27T04:23:22.235Z,99255.28
2022-11-27T04:26:24.929Z,99252.41
2022-11-27T04:29:27.568Z,99237.94
2022-11-27T04:32:30.237Z,99235.47
2022-11-27T04:35:34.299Z,99236.72
2022-11-27T04:38:36.948Z,99242.81
2022-11-27T04:41:39.978Z,99233.91
2022-11-27T04:44:42.900Z,99232.06
2022-11-27T04:47:45.944Z,99224.72
2022-11-27T04:50:50.059Z,99226.31
2022-11-27T04:53:52.678Z,99222.56
2022-11-27T04:56:55.664Z,99228.47
2022-11-27T04:59:58.379Z,99230.69
2022-11-27T05:03:01.133Z,99231.44
2022-11-27T05:06:05.483Z,99223.59
2022-11-27T05:09:08.432Z,99220.53
2022-11-27T05:12:11.328Z,99220.53
2022-11-27T05:15:14.004Z,99222.00
2022-11-27T05:18:16.659Z,99211.69
2022-11-27T05:21:20.615Z,99210.44
2022-11-27T05:24:25.581Z,99209.63
2022-11-27T05:27:46.529Z,99216.78
2022-11-27T05:30:58.819Z,99213.53
2022-11-27T05:34:42.936Z,99211.50
2022-11-27T05:38:01.233Z,99212.25
2022-11-27T05:41:10.833Z,99209.53
2022-11-27T05:44:43.984Z,99201.25
2022-11-27T05:48:07.757Z,99195.91
2022-11-27T05:51:34.027Z,99203.28
2022-11-27T05:54:56.811Z,99214.78
2022-11-27T05:58:22.043Z,99218.81
2022-11-27T06:01:51.073Z,99220.72
2022-11-27T06:05:25.382Z,99224.91
2022-11-27T06:08:37.471Z,99209.44
2022-11-27T06:12:03.929Z,99207.00
2022-11-27T06:15:23.596Z,99208.38
2022-11-27T06:19:13.297Z,99204.06
2022-11-27T06:22:40.381Z,99211.13
2022-11-27T06:29:44.706Z,99217.44
2022-11-27T06:33:05.509Z,99213.53
2022-11-27T06:36:28.772Z,99208.50
2022-11-27T06:40:11.834Z,99207.63
2022-11-27T06:43:55.676Z,99197.59
2022-11-27T06:47:30.370Z,99196.31
2022-11-27T06:51:02.087Z,99205.91
2022-11-27T06:54:38.811Z,99207.00
2022-11-27T06:58:26.494Z,99198.31
2022-11-27T07:05:28.327Z,99190.41
2022-11-27T07:13:02.694Z,99187.94
2022-11-27T07:20:37.681Z,99179.19
2022-11-27T07:28:15.990Z,99160.97
2022-11-27T07:32:15.746Z,99143.03
2022-11-27T07:36:01.462Z,99144.25
2022-11-27T07:48:01.346Z,99135.19
2022-11-27T07:59:26.094Z,99118.66
2022-11-27T08:02:39.832Z,99130.66
2022-11-27T08:05:59.489Z,99129.88
2022-11-27T08:09:29.963Z,99132.13
2022-11-27T08:12:44.337Z,99130.53
2022-11-27T08:19:34.979Z,99116.69
2022-11-27T08:22:43.378Z,99107.56
2022-11-27T08:25:56.007Z,99115.09
2022-11-27T08:29:02.894Z,99104.72
2022-11-27T08:32:10.248Z,99093.50
2022-11-27T08:35:16.616Z,99095.97
2022-11-27T08:38:34.457Z,99110.84
2022-11-27T08:41:47.597Z,99114.53
2022-11-27T08:45:17.614Z,99103.88
2022-11-27T08:52:40.333Z,99084.41
2022-11-27T08:56:24.721Z,99086.38
2022-11-27T09:00:11.047Z,99082.25
2022-11-27T09:03:49.411Z,99078.44
2022-11-27T09:07:28.428Z,99076.94
2022-11-27T09:17:50.106Z,99066.19
2022-11-27T09:21:06.182Z,99081.50
2022-11-27T09:24:17.493Z,99066.78
2022-11-27T09:27:28.798Z,99060.38
2022-11-27T09:30:38.818Z,99053.00
2022-11-27T09:33:52.004Z,99035.91
2022-11-27T09:36:59.686Z,99042.84
2022-11-27T09:40:13.213Z,99070.84
2022-11-27T09:43:33.900Z,99057.28
2022-11-27T09:46:47.091Z,99050.25
2022-11-27T09:50:03.344Z,99040.50
2022-11-27T09:53:22.006Z,99033.16
2022-11-27T09:56:37.785Z,99013.38
2022-11-27T09:59:54.256Z,99005.09
2022-11-27T10:03:05.196Z,99008.94
2022-11-27T10:06:29.510Z,99016.06
2022-11-27T10:09:51.415Z,99015.06
2022-11-27T10:13:10.138Z,98999.69
2022-11-27T10:16:28.364Z,98994.34
2022-11-27T10:19:53.964Z,98994.97
2022-11-27T10:23:21.123Z,98996.19
2022-11-27T10:26:35.348Z,98998.56
2022-11-27T10:29:53.380Z,98997.25
2022-11-27T10:33:09.173Z,98996.78
2022-11-27T10:36:23.826Z,98991.56
2022-11-27T10:39:47.662Z,98989.59
2022-11-27T10:43:18.122Z,98973.94
2022-11-27T10:46:34.488Z,98960.28
2022-11-27T10:49:49.163Z,98953.97
2022-11-27T10:53:07.784Z,98947.44
2022-11-27T10:56:29.694Z,98946.69
2022-11-27T10:59:41.331Z,98936.47
2022-11-27T11:02:45.044Z,98930.28
2022-11-27T11:09:29.802Z,98907.34
2022-11-27T11:12:34.357Z,98902.72
2022-11-27T11:15:51.611Z,98896.81
2022-11-27T11:18:57.485Z,98880.84
2022-11-27T11:22:19.079Z,98881.09
2022-11-27T11:25:28.830Z,98867.09
2022-11-27T11:28:44.850Z,98861.66
2022-11-27T11:32:02.186Z,98859.38
2022-11-27T11:35:12.177Z,98847.44
2022-11-27T11:38:20.991Z,98846.56
2022-11-27T11:41:26.008Z,98847.94
2022-11-27T11:44:37.198Z,98836.47
2022-11-27T11:47:46.276Z,98817.84
2022-11-27T11:50:54.191Z,98823.25
2022-11-27T11:54:04.381Z,98813.53
2022-11-27T11:57:18.502Z,98812.47
2022-11-27T12:00:30.163Z,98813.50
2022-11-27T12:03:49.165Z,98804.41
2022-11-27T12:07:00.427Z,98795.25
2022-11-27T12:10:09.266Z,98788.53
2022-11-27T12:13:30.282Z,98783.50
2022-11-27T12:16:48.296Z,98784.75
2022-11-27T12:20:14.345Z,98783.09
2022-11-27T12:23:34.196Z,98771.00
2022-11-27T12:26:55.520Z,98770.25
2022-11-27T12:30:07.187Z,98769.28
2022-11-27T12:33:54.543Z,98754.28
2022-11-27T12:37:14.198Z,98749.06
2022-11-27T12:40:39.430Z,98735.13
2022-11-27T12:43:46.451Z,98736.50
2022-11-27T12:46:55.721Z,98741.63
2022-11-27T12:50:03.848Z,98741.28
2022-11-27T12:53:23.124Z,98734.41
2022-11-27T12:56:31.999Z,98731.91
2022-11-27T12:59:39.955Z,98731.72
2022-11-27T13:02:50.903Z,98721.19
2022-11-27T13:05:59.097Z,98720.09
2022-11-27T13:09:05.728Z,98712.50
2022-11-27T13:12:09.930Z,98700.31
2022-11-27T13:15:22.547Z,98708.44
2022-11-27T13:18:33.632Z,98712.72
2022-11-27T13:21:39.456Z,98692.00
2022-11-27T13:24:43.956Z,98686.78
2022-11-27T13:27:50.459Z,98691.66
2022-11-27T13:30:55.496Z,98688.22
2022-11-27T13:34:01.275Z,98684.53
2022-11-27T13:37:07.057Z,98683.13
2022-11-27T13:40:21.565Z,98687.47
2022-11-27T13:43:29.793Z,98687.44
2022-11-27T13:46:45.007Z,98696.78
2022-11-27T13:49:59.779Z,98698.28
2022-11-27T13:53:06.228Z,98686.41
2022-11-27T13:56:10.517Z,98686.84
2022-11-27T13:59:21.355Z,98679.00
2022-11-27T14:02:24.784Z,98673.56
2022-11-27T14:05:39.856Z,98678.31
2022-11-27T14:08:52.115Z,98665.44
2022-11-27T14:11:56.889Z,98661.28
2022-11-27T14:15:05.752Z,98665.22
2022-11-27T14:18:17.280Z,98650.13
2022-11-27T14:21:26.579Z,98643.91
2022-11-27T14:24:40.904Z,98650.81
2022-11-27T14:27:45.691Z,98639.50
2022-11-27T14:30:50.809Z,98634.38
2022-11-27T14:34:14.163Z,98632.72
2022-11-27T14:37:25.204Z,98623.28
2022-11-27T14:40:28.937Z,98617.88
2022-11-27T14:43:32.959Z,98605.19
2022-11-27T14:46:37.845Z,98596.03
2022-11-27T14:49:42.083Z,98587.97
2022-11-27T14:52:52.543Z,98593.00
2022-11-27T14:55:57.906Z,98589.25
2022-11-27T14:59:03.217Z,98578.19
2022-11-27T15:02:18.132Z,98563.13
2022-11-27T15:05:23.344Z,98566.00
2022-11-27T15:08:26.940Z,98565.47
2022-11-27T15:11:54.589Z,98559.72
2022-11-27T15:14:59.681Z,98564.94
2022-11-27T15:18:05.488Z,98557.13
2022-11-27T15:21:12.323Z,98558.66
2022-11-27T15:24:30.480Z,98548.75
2022-11-27T15:27:34.481Z,98551.84
2022-11-27T15:30:44.999Z,98551.13
2022-11-27T15:33:56.666Z,98551.31
2022-11-27T15:37:01.648Z,98543.66
2022-11-27T15:40:16.984Z,98537.63
2022-11-27T15:43:19.668Z,98532.97
2022-11-27T15:46:30.035Z,98532.41
2022-11-27T15:49:32.956Z,98538.16
2022-11-27T15:52:35.646Z,98532.50
2022-11-27T15:55:38.399Z,98535.69
2022-11-27T15:58:41.672Z,98538.25
2022-11-27T16:01:45.769Z,98539.06
2022-11-27T16:04:48.464Z,98527.78
2022-11-27T16:07:54.925Z,98528.03
2022-11-27T16:11:00.679Z,98523.56
2022-11-27T16:14:03.336Z,98528.81
2022-11-27T16:17:07.347Z,98525.00
2022-11-27T16:20:10.888Z,98526.00
2022-11-27T16:23:13.535Z,98524.78
2022-11-27T16:26:16.208Z,98531.97
2022-11-27T16:29:19.000Z,98520.75
2022-11-27T16:32:22.971Z,98525.25
2022-11-27T16:35:26.523Z,98515.09
2022-11-27T16:38:29.406Z,98507.56
2022-11-27T16:41:32.191Z,98498.78
2022-11-27T16:44:35.107Z,98498.84
2022-11-27T16:47:50.264Z,98493.56
2022-11-27T16:51:02.211Z,98491.53
2022-11-27T16:54:07.477Z,98491.75
2022-11-27T16:57:10.220Z,98479.31
2022-11-27T17:00:14.328Z,98463.78
2022-11-27T17:03:20.963Z,98452.66
2022-11-27T17:06:27.001Z,98450.03
2022-11-27T17:09:31.235Z,98445.81
2022-11-27T17:12:41.854Z,98453.56
2022-11-27T17:15:45.054Z,98461.09
2022-11-27T17:18:49.654Z,98455.50
2022-11-27T17:21:52.365Z,98450.72
2022-11-27T17:24:57.809Z,98444.56
2022-11-27T17:28:09.546Z,98449.97
2022-11-27T17:31:28.632Z,98444.06
2022-11-27T17:34:50.640Z,98440.34
2022-11-27T17:38:06.617Z,98421.09
2022-11-27T17:41:16.782Z,98413.34
2022-11-27T17:44:32.567Z,98417.31
2022-11-27T17:47:42.858Z,98405.53
2022-11-27T17:50:52.163Z,98426.81
2022-11-27T17:54:02.576Z,98419.28
2022-11-27T17:57:10.059Z,98424.06
2022-11-27T18:00:18.874Z,98406.38
2022-11-27T18:03:23.404Z,98409.31
2022-11-27T18:06:29.545Z,98398.63
2022-11-27T18:09:34.767Z,98396.16
2022-11-27T18:12:39.728Z,98397.72
2022-11-27T18:15:44.642Z,98400.06
2022-11-27T18:18:50.787Z,98403.53
2022-11-27T18:21:56.971Z,98404.66
2022-11-27T18:25:02.024Z,98393.41
2022-11-27T18:28:07.045Z,98404.16
2022-11-27T18:31:13.205Z,98399.41
2022-11-27T18:34:18.700Z,98391.88
2022-11-27T18:37:25.852Z,98389.16
2022-11-27T18:40:35.924Z,98381.81
2022-11-27T18:43:41.276Z,98380.16
2022-11-27T18:46:46.004Z,98372.88
2022-11-27T18:49:50.509Z,98369.09
2022-11-27T18:52:56.977Z,98371.19
2022-11-27T18:56:07.152Z,98370.63
2022-11-27T18:59:12.297Z,98368.78
2022-11-27T19:02:17.571Z,98360.16
2022-11-27T19:05:23.053Z,98346.47
2022-11-27T19:08:30.395Z,98346.25
2022-11-27T19:11:36.379Z,98334.53
2022-11-27T19:14:41.676Z,98324.63
2022-11-27T19:17:46.972Z,98320.06
2022-11-27T19:20:51.157Z,98315.88
2022-11-27T19:23:59.464Z,98314.28
2022-11-27T19:27:04.437Z,98309.91
2022-11-27T19:30:09.901Z,98301.53
2022-11-27T19:33:14.351Z,98305.44
2022-11-27T19:36:19.093Z,98305.94
2022-11-27T19:39:25.442Z,98289.38
2022-11-27T19:42:30.086Z,98287.28
2022-11-27T19:45:36.794Z,98293.34
2022-11-27T19:48:40.997Z,98298.09
2022-11-27T19:51:50.080Z,98299.94
2022-11-27T19:54:56.529Z,98306.66
2022-11-27T19:58:02.061Z,98303.44
2022-11-27T20:01:08.770Z,98311.69
2022-11-27T20:04:15.949Z,98308.44
2022-11-27T20:07:22.447Z,98296.16
2022-11-27T20:10:29.265Z,98296.66
2022-11-27T20:13:36.894Z,98292.38
2022-11-27T20:16:44.127Z,98285.19
2022-11-27T20:19:49.182Z,98275.59
2022-11-27T20:22:54.125Z,98269.88
2022-11-27T20:26:01.757Z,98263.50
2022-11-27T20:29:07.399Z,98265.19
2022-11-27T20:32:12.392Z,98258.66
2022-11-27T20:35:18.090Z,98248.09
2022-11-27T20:38:24.469Z,98256.31
2022-11-27T20:41:31.971Z,98253.31
2022-11-27T20:44:36.620Z,98254.69
2022-11-27T20:47:41.286Z,98231.19
2022-11-27T20:50:51.125Z,98227.50
2022-11-27T20:53:59.709Z,98230.84
2022-11-27T20:57:14.437Z,98232.38
2022-11-27T21:00:21.653Z,98228.59
2022-11-27T21:03:26.499Z,98217.53
2022-11-27T21:06:33.842Z,98222.34
2022-11-27T21:09:45.887Z,98227.66
2022-11-27T21:12:53.035Z,98241.25
2022-11-27T21:15:57.583Z,98248.50
2022-11-27T21:19:04.156Z,98242.88
2022-11-27T21:22:10.626Z,98237.28
2022-11-27T21:25:15.739Z,98244.72
2022-11-27T21:28:23.168Z,98240.94
2022-11-27T21:31:37.057Z,98233.75
2022-11-27T21:34:43.222Z,98226.53
2022-11-27T21:37:53.605Z,98214.53
2022-11-27T21:41:01.012Z,98217.31
2022-11-27T21:44:08.869Z,98215.94
2022-11-27T21:47:13.899Z,98204.56
2022-11-27T21:50:18.603Z,98207.78
2022-11-27T21:53:23.745Z,98198.16
2022-11-27T21:56:33.782Z,98184.28
2022-11-27T21:59:40.617Z,98178.66
2022-11-27T22:02:46.409Z,98176.41
2022-11-27T22:06:01.842Z,98178.81
2022-11-27T22:09:13.387Z,98185.53
2022-11-27T22:12:19.773Z,98177.78
2022-11-27T22:15:25.577Z,98187.06
2022-11-27T22:18:31.572Z,98191.91
2022-11-27T22:21:36.136Z,98187.69
2022-11-27T22:24:42.444Z,98181.06
2022-11-27T22:27:47.295Z,98172.78
2022-11-27T22:30:53.256Z,98187.31
2022-11-27T22:33:58.596Z,98173.13
2022-11-27T22:37:06.232Z,98170.16
2022-11-27T22:40:11.269Z,98157.47
2022-11-27T22:43:16.195Z,98158.34
2022-11-27T22:46:25.446Z,98157.72
2022-11-27T22:49:30.222Z,98162.47
2022-11-27T22:52:34.817Z,98164.88
2022-11-27T22:55:39.846Z,98140.38
2022-11-27T22:58:45.136Z,98120.19
2022-11-27T23:01:52.079Z,98115.13
2022-11-27T23:04:56.455Z,98130.69
2022-11-27T23:08:00.779Z,98129.97
2022-11-27T23:11:07.453Z,98109.72
2022-11-27T23:14:12.015Z,98106.19
2022-11-27T23:17:18.786Z,98097.38
2022-11-27T23:20:23.498Z,98097.34
2022-11-27T23:23:29.273Z,98086.25
2022-11-27T23:26:34.029Z,98096.34
2022-11-27T23:29:38.414Z,98090.88
2022-11-27T23:32:46.129Z,98095.56
2022-11-27T23:35:50.836Z,98086.63
2022-11-27T23:38:55.962Z,98087.31
2022-11-27T23:42:00.510Z,98077.28
2022-11-27T23:45:05.414Z,98070.28
2022-11-27T23:48:11.938Z,98060.66
2022-11-27T23:51:17.800Z,98055.34
2022-11-27T23:54:22.086Z,98050.81
2022-11-27T23:57:27.026Z,98049.47
